createdAt,value
2019-02-06T00:00:01.654Z,96554.8
2019-02-06T00:01:04.101Z,96553.6
2019-02-06T00:02:06.263Z,96554.4
2019-02-06T00:03:08.679Z,96557.5
2019-02-06T00:04:10.854Z,96558.6
2019-02-06T00:06:18.270Z,96561.4
2019-02-06T00:07:20.417Z,96562.7
2019-02-06T00:08:22.068Z,96564.9
2019-02-06T00:09:24.283Z,96556.9
2019-02-06T00:10:26.879Z,96563.1
2019-02-06T00:11:29.362Z,96559.6
2019-02-06T00:12:31.615Z,96561
2019-02-06T00:13:34.066Z,96562.4
2019-02-06T00:14:36.713Z,96562.3
2019-02-06T00:15:39.955Z,96561.6
2019-02-06T00:16:42.984Z,96558.3
2019-02-06T00:17:45.253Z,96558.8
2019-02-06T00:18:47.546Z,96558.1
2019-02-06T00:19:50.026Z,96559.6
2019-02-06T00:20:52.214Z,96558.1
2019-02-06T00:21:54.385Z,96556.5
2019-02-06T00:22:56.524Z,96556.5
2019-02-06T00:23:58.692Z,96555.7
2019-02-06T00:25:00.980Z,96556
2019-02-06T00:26:04.409Z,96559.6
2019-02-06T00:27:07.374Z,96557.2
2019-02-06T00:28:09.823Z,96556.4
2019-02-06T00:29:12.012Z,96558
2019-02-06T00:30:14.159Z,96558.2
2019-02-06T00:31:16.284Z,96553.6
2019-02-06T00:32:18.151Z,96553.6
2019-02-06T00:33:20.311Z,96557.5
2019-02-06T00:34:22.471Z,96552.5
2019-02-06T00:36:29.871Z,96549.6
2019-02-06T00:37:32.959Z,96548.5
2019-02-06T00:38:35.668Z,96548.1
2019-02-06T00:39:38.092Z,96548
2019-02-06T00:40:40.513Z,96549.5
2019-02-06T00:41:42.945Z,96551.5
2019-02-06T00:42:45.121Z,96548.5
2019-02-06T00:43:47.286Z,96549.7
2019-02-06T00:44:49.713Z,96549.5
2019-02-06T00:45:52.147Z,96551.4
2019-02-06T00:46:54.572Z,96551.1
2019-02-06T00:47:57.012Z,96555.5
2019-02-06T00:49:00.156Z,96552.7
2019-02-06T00:50:03.052Z,96555.8
2019-02-06T00:51:05.490Z,96553.1
2019-02-06T00:52:07.909Z,96550.9
2019-02-06T00:53:09.773Z,96555
2019-02-06T00:54:12.249Z,96556.4
2019-02-06T00:55:14.118Z,96552.9
2019-02-06T00:56:16.550Z,96554.2
2019-02-06T00:57:18.702Z,96552.5
2019-02-06T00:58:20.863Z,96553
2019-02-06T00:59:24.229Z,96550.3
2019-02-06T01:00:26.880Z,96551.1
2019-02-06T01:01:29.799Z,96551.1
2019-02-06T01:02:32.231Z,96553.2
2019-02-06T01:03:34.663Z,96552
2019-02-06T01:04:36.826Z,96550.3
2019-02-06T01:05:40.402Z,96546.2
2019-02-06T01:06:42.833Z,96547.4
2019-02-06T01:07:45.273Z,96550.9
2019-02-06T01:08:47.689Z,96553.6
2019-02-06T01:09:50.114Z,96553
2019-02-06T01:10:53.415Z,96551
2019-02-06T01:11:56.172Z,96548.6
2019-02-06T01:12:58.339Z,96544.9
2019-02-06T01:14:00.766Z,96548.5
2019-02-06T01:15:03.183Z,96541.3
2019-02-06T01:16:05.620Z,96544.2
2019-02-06T01:17:08.044Z,96545.1
2019-02-06T01:18:10.204Z,96544
2019-02-06T01:19:12.633Z,96549.9
2019-02-06T01:20:14.516Z,96546.2
2019-02-06T01:21:17.377Z,96547.3
2019-02-06T01:22:20.156Z,96544.5
2019-02-06T01:23:22.574Z,96538.4
2019-02-06T01:24:24.724Z,96537.5
2019-02-06T01:25:27.139Z,96538.6
2019-02-06T01:26:29.574Z,96539.1
2019-02-06T01:27:32.007Z,96540.7
2019-02-06T01:28:34.165Z,96546.4
2019-02-06T01:29:36.618Z,96547.5
2019-02-06T01:30:38.774Z,96546.1
2019-02-06T01:31:41.823Z,96548.7
2019-02-06T01:32:44.374Z,96544.2
2019-02-06T01:33:46.995Z,96545.6
2019-02-06T01:34:49.128Z,96545.5
2019-02-06T01:35:51.636Z,96544.1
2019-02-06T01:36:53.786Z,96543.8
2019-02-06T01:37:55.949Z,96545
2019-02-06T01:38:57.848Z,96545
2019-02-06T01:40:00.351Z,96544.7
2019-02-06T01:41:02.790Z,96544.8
2019-02-06T01:42:05.555Z,96547.4
2019-02-06T01:43:08.644Z,96545.5
2019-02-06T01:44:11.829Z,96549
2019-02-06T01:45:14.433Z,96550.5
2019-02-06T01:46:16.592Z,96550.4
2019-02-06T01:47:18.473Z,96549.5
2019-02-06T01:48:20.625Z,96544.8
2019-02-06T01:49:22.773Z,96540
2019-02-06T01:50:24.912Z,96541.7
2019-02-06T01:51:27.363Z,96536.6
2019-02-06T01:52:29.797Z,96535.1
2019-02-06T01:53:32.826Z,96533
2019-02-06T01:54:35.123Z,96537
2019-02-06T01:55:37.556Z,96535.7
2019-02-06T01:56:39.707Z,96529.9
2019-02-06T01:57:42.129Z,96530.8
2019-02-06T01:58:44.254Z,96531.5
2019-02-06T01:59:46.426Z,96528.6
2019-02-06T02:00:48.580Z,96526.7
2019-02-06T02:01:50.734Z,96527.1
2019-02-06T02:02:52.977Z,96526.8
2019-02-06T02:03:56.008Z,96524.8
2019-02-06T02:04:58.555Z,96522.3
2019-02-06T02:07:05.966Z,96525.5
2019-02-06T02:08:08.124Z,96522.7
2019-02-06T02:09:10.304Z,96523.2
2019-02-06T02:10:12.727Z,96524
2019-02-06T02:11:15.156Z,96518.8
2019-02-06T02:12:17.407Z,96516.5
2019-02-06T02:13:19.831Z,96518.9
2019-02-06T02:14:21.985Z,96517.2
2019-02-06T02:15:24.883Z,96513.8
2019-02-06T02:16:27.660Z,96509.2
2019-02-06T02:17:30.093Z,96514.6
2019-02-06T02:18:32.524Z,96504
2019-02-06T02:19:34.950Z,96507.9
2019-02-06T02:20:37.364Z,96503.8
2019-02-06T02:21:39.792Z,96508.2
2019-02-06T02:22:42.253Z,96508.4
2019-02-06T02:23:44.670Z,96508.5
2019-02-06T02:24:46.824Z,96511.2
2019-02-06T02:25:49.855Z,96514.4
2019-02-06T02:26:52.594Z,96516.2
2019-02-06T02:27:55.760Z,96503.1
2019-02-06T02:28:58.184Z,96506.5
2019-02-06T02:30:00.712Z,96504.6
2019-02-06T02:31:02.631Z,96504.8
2019-02-06T02:32:05.054Z,96503.7
2019-02-06T02:33:07.486Z,96503.6
2019-02-06T02:34:09.654Z,96501.1
2019-02-06T02:35:11.932Z,96499.8
2019-02-06T02:37:19.360Z,96496.4
2019-02-06T02:38:22.826Z,96500.8
2019-02-06T02:39:25.824Z,96498.5
2019-02-06T02:40:27.714Z,96495.8
2019-02-06T02:41:30.144Z,96495.5
2019-02-06T02:42:32.296Z,96495.8
2019-02-06T02:43:34.725Z,96495
2019-02-06T02:44:37.160Z,96494
2019-02-06T02:45:39.578Z,96493.2
2019-02-06T02:46:42.001Z,96492.7
2019-02-06T02:47:44.444Z,96491.6
2019-02-06T02:48:47.463Z,96487.8
2019-02-06T02:49:50.074Z,96490.5
2019-02-06T02:50:52.781Z,96490.4
2019-02-06T02:51:55.206Z,96489.9
2019-02-06T02:52:57.634Z,96487
2019-02-06T02:53:59.807Z,96486.8
2019-02-06T02:55:01.990Z,96488.5
2019-02-06T02:56:04.424Z,96486.8
2019-02-06T02:57:06.574Z,96486
2019-02-06T02:58:08.719Z,96487
2019-02-06T02:59:11.094Z,96483.4
2019-02-06T03:00:14.294Z,96480
2019-02-06T03:01:17.416Z,96479.7
2019-02-06T03:02:19.589Z,96482.3
2019-02-06T03:03:21.744Z,96479.6
2019-02-06T03:04:23.887Z,96484.3
2019-02-06T03:05:26.311Z,96480.1
2019-02-06T03:06:30.128Z,96478.3
2019-02-06T03:07:32.565Z,96481.9
2019-02-06T03:08:34.992Z,96482.9
2019-02-06T03:09:37.145Z,96484.2
2019-02-06T03:10:39.784Z,96486.1
2019-02-06T03:11:43.122Z,96486.2
2019-02-06T03:12:45.960Z,96483.8
2019-02-06T03:13:48.214Z,96487.8
2019-02-06T03:14:50.075Z,96485.7
2019-02-06T03:15:52.507Z,96489.1
2019-02-06T03:16:55.067Z,96488
2019-02-06T03:17:57.501Z,96491.1
2019-02-06T03:18:59.652Z,96489.3
2019-02-06T03:20:02.086Z,96484.6
2019-02-06T03:21:04.525Z,96489.9
2019-02-06T03:22:07.556Z,96482.2
2019-02-06T03:23:09.845Z,96487.7
2019-02-06T03:24:11.725Z,96489
2019-02-06T03:25:14.142Z,96483
2019-02-06T03:26:16.574Z,96482.2
2019-02-06T03:27:19.077Z,96479
2019-02-06T03:28:21.496Z,96478.7
2019-02-06T03:29:23.933Z,96482.8
2019-02-06T03:30:26.435Z,96478.5
2019-02-06T03:31:28.874Z,96478.8
2019-02-06T03:32:31.185Z,96476.5
2019-02-06T03:33:34.365Z,96478.5
2019-02-06T03:34:37.249Z,96476.3
2019-02-06T03:35:39.664Z,96477.2
2019-02-06T03:36:42.485Z,96472.3
2019-02-06T03:37:44.909Z,96478.8
2019-02-06T03:38:47.323Z,96480.4
2019-02-06T03:39:49.468Z,96482.9
2019-02-06T03:40:51.627Z,96484.1
2019-02-06T03:41:54.053Z,96483.9
2019-02-06T03:42:56.336Z,96480.8
2019-02-06T03:43:59.665Z,96481.5
2019-02-06T03:45:02.560Z,96482
2019-02-06T03:46:04.710Z,96477.1
2019-02-06T03:47:07.142Z,96480.9
2019-02-06T03:48:09.577Z,96476.9
2019-02-06T03:49:11.718Z,96477
2019-02-06T03:50:14.144Z,96476.4
2019-02-06T03:51:16.294Z,96477.5
2019-02-06T03:52:18.719Z,96480.2
2019-02-06T03:53:20.872Z,96477.5
2019-02-06T03:54:23.965Z,96479.2
2019-02-06T03:55:25.842Z,96474.4
2019-02-06T03:56:28.608Z,96477.8
2019-02-06T03:57:31.049Z,96478.4
2019-02-06T03:58:33.486Z,96479.8
2019-02-06T03:59:35.637Z,96480.1
2019-02-06T04:00:38.103Z,96482.5
2019-02-06T04:01:40.540Z,96480.8
2019-02-06T04:02:42.966Z,96481.8
2019-02-06T04:03:45.394Z,96487.5
2019-02-06T04:04:47.894Z,96486
2019-02-06T04:05:51.125Z,96488.1
2019-02-06T04:07:58.628Z,96484.3
2019-02-06T04:09:01.060Z,96481.8
2019-02-06T04:10:03.495Z,96481.3
2019-02-06T04:11:05.659Z,96480.6
2019-02-06T04:12:07.815Z,96477.1
2019-02-06T04:13:10.265Z,96478.2
2019-02-06T04:14:12.717Z,96476.4
2019-02-06T04:15:14.891Z,96476.8
2019-02-06T04:16:17.317Z,96475.5
2019-02-06T04:17:20.386Z,96473.5
2019-02-06T04:18:23.160Z,96471.1
2019-02-06T04:19:25.603Z,96472.7
2019-02-06T04:20:28.055Z,96477
2019-02-06T04:21:29.976Z,96476.9
2019-02-06T04:22:32.149Z,96478.9
2019-02-06T04:23:34.044Z,96479.6
2019-02-06T04:24:36.472Z,96480.3
2019-02-06T04:25:38.915Z,96476.8
2019-02-06T04:26:41.340Z,96477.5
2019-02-06T04:27:44.004Z,96475.8
2019-02-06T04:28:46.636Z,96475
2019-02-06T04:29:48.824Z,96477.2
2019-02-06T04:30:50.957Z,96481
2019-02-06T04:31:53.105Z,96479.2
2019-02-06T04:32:55.535Z,96476.3
2019-02-06T04:33:57.683Z,96478.6
2019-02-06T04:35:00.109Z,96480.8
2019-02-06T04:36:02.623Z,96481.6
2019-02-06T04:38:10.032Z,96486.5
2019-02-06T04:39:13.121Z,96485.7
2019-02-06T04:40:16.048Z,96483.4
2019-02-06T04:41:18.469Z,96478.7
2019-02-06T04:42:20.637Z,96480.6
2019-02-06T04:43:23.072Z,96477.4
2019-02-06T04:44:25.496Z,96478
2019-02-06T04:45:27.915Z,96476.2
2019-02-06T04:46:30.345Z,96478.2
2019-02-06T04:47:32.498Z,96485.1
2019-02-06T04:48:35.065Z,96486.9
2019-02-06T04:49:37.748Z,96486.4
2019-02-06T04:50:40.844Z,96490.3
2019-02-06T04:51:43.315Z,96490.8
2019-02-06T04:52:45.479Z,96486.8
2019-02-06T04:53:47.903Z,96492.2
2019-02-06T04:54:50.193Z,96496.9
2019-02-06T04:55:51.818Z,96493.5
2019-02-06T04:56:53.684Z,96495.6
2019-02-06T04:57:56.115Z,96492.1
2019-02-06T04:58:58.021Z,96484.3
2019-02-06T05:00:00.445Z,96485.8
2019-02-06T05:01:03.628Z,96485.7
2019-02-06T05:02:06.439Z,96491.1
2019-02-06T05:03:08.864Z,96492
2019-02-06T05:04:11.285Z,96486.4
2019-02-06T05:05:13.444Z,96495.1
2019-02-06T05:06:15.884Z,96494.5
2019-02-06T05:08:23.008Z,96496.1
2019-02-06T05:09:25.145Z,96498.1
2019-02-06T05:10:27.642Z,96501.9
2019-02-06T05:11:30.557Z,96505.4
2019-02-06T05:12:33.044Z,96507
2019-02-06T05:13:36.229Z,96504.5
2019-02-06T05:14:38.644Z,96501.4
2019-02-06T05:15:40.803Z,96502.4
2019-02-06T05:16:43.244Z,96503.7
2019-02-06T05:17:45.713Z,96505.8
2019-02-06T05:18:47.586Z,96502.2
2019-02-06T05:19:49.734Z,96500.6
2019-02-06T05:20:51.893Z,96501.3
2019-02-06T05:21:54.060Z,96498.7
2019-02-06T05:22:57.225Z,96499.1
2019-02-06T05:24:00.379Z,96502.1
2019-02-06T05:25:02.534Z,96506.6
2019-02-06T05:26:04.425Z,96507.3
2019-02-06T05:27:06.360Z,96504.5
2019-02-06T05:28:08.794Z,96508
2019-02-06T05:29:11.223Z,96506.4
2019-02-06T05:30:13.364Z,96510.2
2019-02-06T05:31:15.924Z,96503.7
2019-02-06T05:32:17.873Z,96506.6
2019-02-06T05:33:21.025Z,96505.3
2019-02-06T05:34:23.800Z,96503.7
2019-02-06T05:35:25.966Z,96496.9
2019-02-06T05:36:28.389Z,96495.7
2019-02-06T05:38:35.785Z,96496.8
2019-02-06T05:39:37.652Z,96498.1
2019-02-06T05:40:40.077Z,96503.2
2019-02-06T05:41:42.275Z,96506.3
2019-02-06T05:42:44.718Z,96507.3
2019-02-06T05:43:47.777Z,96506.5
2019-02-06T05:44:51.013Z,96509.3
2019-02-06T05:45:53.974Z,96508.5
2019-02-06T05:46:56.154Z,96507.8
2019-02-06T05:47:58.301Z,96506
2019-02-06T05:49:00.453Z,96505.9
2019-02-06T05:50:02.885Z,96504.7
2019-02-06T05:51:05.437Z,96502.9
2019-02-06T05:52:07.893Z,96509.1
2019-02-06T05:53:10.078Z,96503.7
2019-02-06T05:54:12.410Z,96505.5
2019-02-06T05:55:15.973Z,96502.3
2019-02-06T05:56:19.061Z,96503.4
2019-02-06T05:57:21.481Z,96499.4
2019-02-06T05:58:23.673Z,96498.6
2019-02-06T05:59:26.129Z,96503.8
2019-02-06T06:00:28.557Z,96499.8
2019-02-06T06:01:30.698Z,96505.7
2019-02-06T06:02:33.121Z,96503.7
2019-02-06T06:03:35.010Z,96508.6
2019-02-06T06:04:37.442Z,96508.4
2019-02-06T06:05:40.507Z,96506.8
2019-02-06T06:06:43.295Z,96508.7
2019-02-06T06:07:46.574Z,96508.4
2019-02-06T06:08:48.715Z,96507.6
2019-02-06T06:09:51.148Z,96511.5
2019-02-06T06:10:53.589Z,96507
2019-02-06T06:11:55.739Z,96506
2019-02-06T06:12:58.168Z,96506.3
2019-02-06T06:14:00.075Z,96508.3
2019-02-06T06:15:02.493Z,96504.9
2019-02-06T06:16:05.769Z,96504
2019-02-06T06:17:08.684Z,96509.5
2019-02-06T06:18:11.121Z,96509.3
2019-02-06T06:19:13.259Z,96507
2019-02-06T06:20:15.685Z,96506.3
2019-02-06T06:21:18.111Z,96507.6
2019-02-06T06:22:19.995Z,96505.3
2019-02-06T06:23:22.139Z,96506.9
2019-02-06T06:24:24.561Z,96508
2019-02-06T06:25:27.002Z,96507.1
2019-02-06T06:26:29.642Z,96506.3
2019-02-06T06:27:32.209Z,96507.2
2019-02-06T06:28:34.683Z,96506.5
2019-02-06T06:29:37.115Z,96506.7
2019-02-06T06:30:39.571Z,96506.7
2019-02-06T06:31:41.726Z,96505.7
2019-02-06T06:32:44.008Z,96508.7
2019-02-06T06:33:46.180Z,96503.6
2019-02-06T06:34:48.627Z,96507.4
2019-02-06T06:35:50.786Z,96506.4
2019-02-06T06:39:04.586Z,96509.9
2019-02-06T06:40:07.275Z,96514
2019-02-06T06:41:09.717Z,96512.2
2019-02-06T06:42:12.176Z,96515.8
2019-02-06T06:44:19.585Z,96515.6
2019-02-06T06:45:22.007Z,96511.1
2019-02-06T06:46:24.437Z,96516.4
2019-02-06T06:47:26.598Z,96515.6
2019-02-06T06:48:29.034Z,96513.3
2019-02-06T06:49:31.888Z,96512.1
2019-02-06T06:50:34.614Z,96516.8
2019-02-06T06:51:37.367Z,96515.2
2019-02-06T06:52:39.238Z,96518.4
2019-02-06T06:53:41.663Z,96518.6
2019-02-06T06:54:44.094Z,96522.9
2019-02-06T06:55:46.533Z,96521.9
2019-02-06T06:56:48.395Z,96524.4
2019-02-06T06:57:50.540Z,96524.7
2019-02-06T06:58:52.971Z,96523.1
2019-02-06T07:01:00.733Z,96523.2
2019-02-06T07:02:03.622Z,96521.2
2019-02-06T07:03:05.498Z,96521
2019-02-06T07:04:07.918Z,96517.8
2019-02-06T07:05:10.346Z,96520
2019-02-06T07:06:12.803Z,96513.8
2019-02-06T07:07:14.957Z,96519.5
2019-02-06T07:08:17.378Z,96515.4
2019-02-06T07:09:19.531Z,96519
2019-02-06T07:10:21.960Z,96515.5
2019-02-06T07:11:24.243Z,96514.9
2019-02-06T07:12:27.389Z,96516.1
2019-02-06T07:13:30.402Z,96521.1
2019-02-06T07:14:32.558Z,96516.7
2019-02-06T07:15:35.008Z,96516
2019-02-06T07:16:37.448Z,96519.4
2019-02-06T07:17:39.585Z,96518.3
2019-02-06T07:18:41.459Z,96520.3
2019-02-06T07:19:43.901Z,96524.1
2019-02-06T07:20:45.776Z,96523
2019-02-06T07:21:47.929Z,96523.8
2019-02-06T07:22:51.425Z,96522.4
2019-02-06T07:23:54.075Z,96520.4
2019-02-06T07:24:56.340Z,96518.6
2019-02-06T07:25:58.771Z,96517.8
2019-02-06T07:27:01.201Z,96520.9
2019-02-06T07:28:03.619Z,96517.8
2019-02-06T07:29:06.045Z,96516.7
2019-02-06T07:30:07.618Z,96515.8
2019-02-06T07:31:10.062Z,96522.7
2019-02-06T07:32:11.924Z,96520.4
2019-02-06T07:33:14.744Z,96519
2019-02-06T07:34:17.315Z,96518.1
2019-02-06T07:35:20.144Z,96518.4
2019-02-06T07:36:22.563Z,96520.5
2019-02-06T07:37:24.984Z,96513.1
2019-02-06T07:38:27.410Z,96514.5
2019-02-06T07:39:29.565Z,96517.8
2019-02-06T07:40:31.417Z,96517.1
2019-02-06T07:41:33.841Z,96517.4
2019-02-06T07:42:35.996Z,96522
2019-02-06T07:43:38.504Z,96517.7
2019-02-06T07:44:41.719Z,96520.7
2019-02-06T07:45:44.810Z,96518.6
2019-02-06T07:46:46.951Z,96519.4
2019-02-06T07:47:49.427Z,96521.4
2019-02-06T07:48:51.280Z,96520.8
2019-02-06T07:49:53.501Z,96520.8
2019-02-06T07:50:55.377Z,96522.5
2019-02-06T07:51:57.823Z,96522
2019-02-06T07:53:00.265Z,96519.4
2019-02-06T07:54:02.140Z,96528.8
2019-02-06T07:55:04.893Z,96529.1
2019-02-06T07:56:07.819Z,96525.5
2019-02-06T07:57:10.252Z,96524.9
2019-02-06T07:58:12.696Z,96524.1
2019-02-06T07:59:14.951Z,96525.4
2019-02-06T08:00:17.369Z,96528.9
2019-02-06T08:01:19.855Z,96529.3
2019-02-06T08:03:30.910Z,96532.2
2019-02-06T08:04:33.341Z,96528.5
2019-02-06T08:05:35.588Z,96530.4
2019-02-06T08:06:38.477Z,96532.3
2019-02-06T08:07:41.283Z,96533
2019-02-06T08:08:43.362Z,96531.6
2019-02-06T08:09:45.531Z,96528.8
2019-02-06T08:10:47.395Z,96532.6
2019-02-06T08:11:49.528Z,96530.3
2019-02-06T08:12:51.431Z,96533.8
2019-02-06T08:13:53.854Z,96532.9
2019-02-06T08:14:56.288Z,96534.2
2019-02-06T08:15:58.729Z,96529.3
2019-02-06T08:17:01.644Z,96532.2
2019-02-06T08:18:04.225Z,96534.1
2019-02-06T08:19:07.323Z,96528.4
2019-02-06T08:20:09.775Z,96533.3
2019-02-06T08:21:11.932Z,96529.8
2019-02-06T08:22:14.351Z,96532.2
2019-02-06T08:23:16.789Z,96527.7
2019-02-06T08:24:19.235Z,96529.6
2019-02-06T08:25:21.752Z,96530.3
2019-02-06T08:26:24.239Z,96530.2
2019-02-06T08:27:27.963Z,96531.5
2019-02-06T08:28:31.241Z,96530.1
2019-02-06T08:29:33.793Z,96528
2019-02-06T08:30:36.817Z,96530.3
2019-02-06T08:31:39.247Z,96525.8
2019-02-06T08:32:41.405Z,96528
2019-02-06T08:33:43.576Z,96524.5
2019-02-06T08:34:45.993Z,96526.2
2019-02-06T08:35:48.412Z,96524.5
2019-02-06T08:36:50.574Z,96525.8
2019-02-06T08:37:52.859Z,96521.6
2019-02-06T08:38:56.982Z,96519.6
2019-02-06T08:39:59.763Z,96514.1
2019-02-06T08:41:02.387Z,96519.1
2019-02-06T08:42:05.029Z,96517.1
2019-02-06T08:43:07.461Z,96513.6
2019-02-06T08:44:09.914Z,96517.2
2019-02-06T08:45:12.058Z,96520.9
2019-02-06T08:46:14.206Z,96516.5
2019-02-06T08:47:16.365Z,96515.4
2019-02-06T08:48:18.806Z,96522.6
2019-02-06T08:49:20.944Z,96520.8
2019-02-06T08:50:23.634Z,96524.8
2019-02-06T08:51:26.588Z,96519.4
2019-02-06T08:52:29.365Z,96521.4
2019-02-06T08:53:31.506Z,96524.5
2019-02-06T08:54:33.649Z,96523.3
2019-02-06T08:55:35.806Z,96522.6
2019-02-06T08:56:38.234Z,96525.8
2019-02-06T08:57:40.657Z,96530.8
2019-02-06T08:58:42.812Z,96522
2019-02-06T08:59:45.234Z,96521.8
2019-02-06T09:00:47.732Z,96525.2
2019-02-06T09:01:50.847Z,96524.6
2019-02-06T09:02:53.724Z,96524.8
2019-02-06T09:03:56.167Z,96526.1
2019-02-06T09:04:58.589Z,96524.4
2019-02-06T09:06:00.749Z,96522.7
2019-02-06T09:07:03.309Z,96525.2
2019-02-06T09:08:05.731Z,96521.7
2019-02-06T09:09:07.885Z,96522.6
2019-02-06T09:10:10.034Z,96521.4
2019-02-06T09:11:16.654Z,96525.1
2019-02-06T09:12:18.810Z,96519.5
2019-02-06T09:13:22.091Z,96524.5
2019-02-06T09:14:24.974Z,96520.5
2019-02-06T09:15:28.864Z,96520
2019-02-06T09:16:30.755Z,96518.6
2019-02-06T09:17:33.194Z,96520
2019-02-06T09:18:35.086Z,96518.9
2019-02-06T09:19:36.958Z,96518.8
2019-02-06T09:20:39.384Z,96518.2
2019-02-06T09:21:41.810Z,96519.4
2019-02-06T09:22:44.242Z,96519.2
2019-02-06T09:23:46.477Z,96518.3
2019-02-06T09:24:49.209Z,96520
2019-02-06T09:25:51.948Z,96520.9
2019-02-06T09:26:54.404Z,96521.5
2019-02-06T09:27:56.684Z,96518.1
2019-02-06T09:28:59.129Z,96521.4
2019-02-06T09:30:01.604Z,96520.6
2019-02-06T09:31:03.750Z,96519.2
2019-02-06T09:32:06.183Z,96523.6
2019-02-06T09:33:08.603Z,96519.3
2019-02-06T09:34:11.384Z,96520.6
2019-02-06T09:35:14.404Z,96518.4
2019-02-06T09:36:17.504Z,96516.5
2019-02-06T09:37:19.654Z,96515.8
2019-02-06T09:38:22.080Z,96518.7
2019-02-06T09:39:24.513Z,96514.2
2019-02-06T09:40:26.370Z,96518.5
2019-02-06T09:41:28.809Z,96514.5
2019-02-06T09:42:30.962Z,96517.6
2019-02-06T09:43:33.384Z,96512.5
2019-02-06T09:44:35.814Z,96515.6
2019-02-06T09:45:38.809Z,96516.5
2019-02-06T09:46:41.360Z,96512.8
2019-02-06T09:47:43.842Z,96511.2
2019-02-06T09:48:46.274Z,96511.3
2019-02-06T09:50:53.683Z,96514.4
2019-02-06T09:51:55.578Z,96507.5
2019-02-06T09:52:58.014Z,96507.9
2019-02-06T09:54:00.165Z,96509.9
2019-02-06T09:55:02.346Z,96509.2
2019-02-06T09:56:04.774Z,96514.6
2019-02-06T09:57:08.114Z,96511.9
2019-02-06T09:58:10.856Z,96514.7
2019-02-06T09:59:12.994Z,96509.1
2019-02-06T10:00:15.419Z,96507.7
2019-02-06T10:01:17.960Z,96508.9
2019-02-06T10:02:24.844Z,96504.5
2019-02-06T10:03:26.984Z,96505.3
2019-02-06T10:04:29.135Z,96506.3
2019-02-06T10:05:31.289Z,96498.8
2019-02-06T10:06:33.524Z,96503.4
2019-02-06T10:07:35.692Z,96504.3
2019-02-06T10:08:39.040Z,96499.7
2019-02-06T10:09:41.955Z,96503.6
2019-02-06T10:10:44.376Z,96504.4
2019-02-06T10:11:46.541Z,96507.1
2019-02-06T10:12:48.972Z,96507.2
2019-02-06T10:13:51.410Z,96511.9
2019-02-06T10:14:53.845Z,96506.7
2019-02-06T10:15:55.720Z,96505.8
2019-02-06T10:16:57.877Z,96501.2
2019-02-06T10:18:00.306Z,96503.3
2019-02-06T10:19:03.064Z,96498.5
2019-02-06T10:20:05.246Z,96497.1
2019-02-06T10:21:08.260Z,96492.8
2019-02-06T10:22:10.684Z,96493
2019-02-06T10:23:13.112Z,96493
2019-02-06T10:24:15.274Z,96494.2
2019-02-06T10:25:17.423Z,96492.6
2019-02-06T10:26:19.859Z,96488.1
2019-02-06T10:28:27.752Z,96488.7
2019-02-06T10:29:29.912Z,96487.3
2019-02-06T10:30:32.994Z,96485.9
2019-02-06T10:31:35.762Z,96486.3
2019-02-06T10:32:38.297Z,96481.8
2019-02-06T10:33:40.735Z,96481.8
2019-02-06T10:34:42.661Z,96483.2
2019-02-06T10:35:45.095Z,96483
2019-02-06T10:36:47.527Z,96484.9
2019-02-06T10:37:49.954Z,96487
2019-02-06T10:38:52.388Z,96485.9
2019-02-06T10:39:54.544Z,96484.3
2019-02-06T10:40:56.976Z,96484.4
2019-02-06T10:42:00.199Z,96480.7
2019-02-06T10:43:02.772Z,96481.7
2019-02-06T10:44:05.332Z,96478.1
2019-02-06T10:45:07.503Z,96478.2
2019-02-06T10:46:09.935Z,96476.2
2019-02-06T10:47:12.085Z,96477.6
2019-02-06T10:48:14.512Z,96478.7
2019-02-06T10:49:16.938Z,96477.5
2019-02-06T10:50:19.357Z,96470.1
2019-02-06T10:51:21.513Z,96465.2
2019-02-06T10:52:24.654Z,96464.4
2019-02-06T10:53:27.424Z,96455.7
2019-02-06T10:54:29.556Z,96450.4
2019-02-06T10:55:31.984Z,96449.8
2019-02-06T10:56:34.417Z,96446
2019-02-06T10:57:36.540Z,96444.2
2019-02-06T10:58:38.986Z,96443.2
2019-02-06T10:59:41.426Z,96442.3
2019-02-06T11:00:43.856Z,96438.8
2019-02-06T11:01:46.298Z,96441.2
2019-02-06T11:02:48.945Z,96440.7
2019-02-06T11:03:51.420Z,96436.5
2019-02-06T11:04:54.340Z,96436
2019-02-06T11:05:56.799Z,96435.7
2019-02-06T11:06:59.248Z,96434.3
2019-02-06T11:08:01.773Z,96435.8
2019-02-06T11:09:04.212Z,96434.1
2019-02-06T11:10:06.639Z,96433.6
2019-02-06T11:11:08.271Z,96428.9
2019-02-06T11:12:10.431Z,96430.2
2019-02-06T11:13:12.865Z,96426.9
2019-02-06T11:14:16.211Z,96434
2019-02-06T11:15:18.829Z,96427
2019-02-06T11:16:21.255Z,96422.4
2019-02-06T11:17:22.880Z,96426
2019-02-06T11:18:25.309Z,96421.5
2019-02-06T11:19:27.735Z,96420.8
2019-02-06T11:20:30.240Z,96415.3
2019-02-06T11:21:32.667Z,96419.2
2019-02-06T11:22:35.094Z,96415.2
2019-02-06T11:23:37.235Z,96409.1
2019-02-06T11:24:40.238Z,96409.1
2019-02-06T11:25:42.387Z,96406.7
2019-02-06T11:26:45.441Z,96401.4
2019-02-06T11:27:47.872Z,96407.4
2019-02-06T11:28:50.506Z,96402.8
2019-02-06T11:29:52.937Z,96402.5
2019-02-06T11:32:00.345Z,96399.5
2019-02-06T11:33:02.515Z,96397.5
2019-02-06T11:34:04.943Z,96398.9
2019-02-06T11:35:07.113Z,96395.6
2019-02-06T11:36:09.863Z,96394.8
2019-02-06T11:37:12.343Z,96396.4
2019-02-06T11:38:15.194Z,96391.7
2019-02-06T11:39:17.623Z,96393
2019-02-06T11:40:19.885Z,96392.5
2019-02-06T11:41:22.040Z,96391.2
2019-02-06T11:42:23.917Z,96392.3
2019-02-06T11:43:26.334Z,96387.5
2019-02-06T11:44:28.212Z,96387.5
2019-02-06T11:45:30.345Z,96390.6
2019-02-06T11:46:32.788Z,96388.9
2019-02-06T11:47:36.122Z,96387
2019-02-06T11:48:38.778Z,96387.7
2019-02-06T11:49:40.927Z,96389.6
2019-02-06T11:50:43.364Z,96386.3
2019-02-06T11:51:45.249Z,96388
2019-02-06T11:52:47.677Z,96382.8
2019-02-06T11:53:49.809Z,96377.8
2019-02-06T11:54:51.941Z,96378.1
2019-02-06T11:55:54.109Z,96377.4
2019-02-06T11:56:56.541Z,96378.9
2019-02-06T11:57:59.885Z,96371.5
2019-02-06T11:59:02.487Z,96372.9
2019-02-06T12:00:05.287Z,96371.4
2019-02-06T12:01:07.708Z,96371.9
2019-02-06T12:02:09.875Z,96371.5
2019-02-06T12:03:12.031Z,96369.1
2019-02-06T12:04:13.922Z,96360.7
2019-02-06T12:05:16.359Z,96360.9
2019-02-06T12:06:18.495Z,96361
2019-02-06T12:07:20.920Z,96356.9
2019-02-06T12:08:23.445Z,96356.4
2019-02-06T12:09:26.618Z,96354.1
2019-02-06T12:10:29.654Z,96351.5
2019-02-06T12:11:32.082Z,96350.5
2019-02-06T12:12:34.505Z,96347.6
2019-02-06T12:13:36.648Z,96352.3
2019-02-06T12:14:38.775Z,96347.2
2019-02-06T12:15:40.666Z,96345.2
2019-02-06T12:16:42.829Z,96342.8
2019-02-06T12:17:44.976Z,96345.6
2019-02-06T12:18:47.415Z,96345.5
2019-02-06T12:19:50.637Z,96335.8
2019-02-06T12:20:53.536Z,96337.8
2019-02-06T12:21:55.959Z,96337.4
2019-02-06T12:22:58.115Z,96332.5
2019-02-06T12:24:00.274Z,96332.7
2019-02-06T12:25:02.439Z,96332
2019-02-06T12:26:04.873Z,96331.1
2019-02-06T12:27:07.306Z,96326.2
2019-02-06T12:28:09.756Z,96324.7
2019-02-06T12:29:12.185Z,96327
2019-02-06T12:30:14.593Z,96327.8
2019-02-06T12:31:17.392Z,96325.9
2019-02-06T12:32:18.995Z,96325.9
2019-02-06T12:33:20.851Z,96321.4
2019-02-06T12:34:22.991Z,96320
2019-02-06T12:35:25.424Z,96319.3
2019-02-06T12:36:27.866Z,96319.2
2019-02-06T12:37:29.753Z,96318.2
2019-02-06T12:38:32.178Z,96318.2
2019-02-06T12:39:34.421Z,96312.4
2019-02-06T12:40:37.889Z,96310.9
2019-02-06T12:41:41.066Z,96309.8
2019-02-06T12:42:43.214Z,96308.8
2019-02-06T12:43:45.363Z,96306.9
2019-02-06T12:44:47.804Z,96306.5
2019-02-06T12:45:49.964Z,96305.5
2019-02-06T12:46:52.105Z,96299.7
2019-02-06T12:47:54.543Z,96300.5
2019-02-06T12:48:57.217Z,96301.7
2019-02-06T12:49:59.981Z,96299.9
2019-02-06T12:51:02.424Z,96299.6
2019-02-06T12:52:04.587Z,96296.8
2019-02-06T12:53:06.745Z,96300.2
2019-02-06T12:54:08.943Z,96297.4
2019-02-06T12:55:11.374Z,96299.4
2019-02-06T12:56:13.801Z,96296.2
2019-02-06T12:57:16.233Z,96295.7